Terminal Aerodrome Forecast
Issued by NWS

Home | Current Version | Previous Version | Text Only | Print | Product List | Glossary On
Versions: 1 2 3 4 5 6 7 8 9 10 11 12
000
FTUS44 KCRP 212300
TAFLRD
TAF
KLRD 212338Z 2200/2224 15019G28KT P6SM FEW090
     FM220800 15013KT P6SM FEW020
     FM221400 16016G22KT P6SM SCT020
     FM222300 14018G25KT P6SM FEW090=

USA.gov is the U.S. government's official web portal to all federal, state and local government web resources and services.